sensor_id;sensor_type;location;lat;lon;timestamp;temperature;humidity
9410;DHT22;4744;52.576;13.568;2022-12-29T00:00:04;8.20;1.00
9410;DHT22;4744;52.576;13.568;2022-12-29T00:02:31;8.20;1.00
9410;DHT22;4744;52.576;13.568;2022-12-29T00:04:58;8.20;1.00
9410;DHT22;4744;52.576;13.568;2022-12-29T00:07:26;8.30;1.00
9410;DHT22;4744;52.576;13.568;2022-12-29T00:09:53;8.30;1.00
9410;DHT22;4744;52.576;13.568;2022-12-29T00:12:20;8.30;1.00
9410;DHT22;4744;52.576;13.568;2022-12-29T00:14:47;8.30;1.00
9410;DHT22;4744;52.576;13.568;2022-12-29T00:17:31;8.40;1.00
9410;DHT22;4744;52.576;13.568;2022-12-29T00:19:58;8.40;1.00
9410;DHT22;4744;52.576;13.568;2022-12-29T00:22:44;8.40;1.00
9410;DHT22;4744;52.576;13.568;2022-12-29T00:25:29;8.40;1.00
9410;DHT22;4744;52.576;13.568;2022-12-29T00:28:13;8.40;1.00
9410;DHT22;4744;52.576;13.568;2022-12-29T00:30:59;8.40;1.00
9410;DHT22;4744;52.576;13.568;2022-12-29T00:33:43;8.50;1.00
9410;DHT22;4744;52.576;13.568;2022-12-29T00:36:31;8.60;1.00
9410;DHT22;4744;52.576;13.568;2022-12-29T00:39:03;8.60;1.00
9410;DHT22;4744;52.576;13.568;2022-12-29T00:41:50;8.60;1.00
9410;DHT22;4744;52.576;13.568;2022-12-29T00:44:34;8.70;1.00
9410;DHT22;4744;52.576;13.568;2022-12-29T00:47:01;8.60;1.00
9410;DHT22;4744;52.576;13.568;2022-12-29T00:49:30;8.60;1.00
9410;DHT22;4744;52.576;13.568;2022-12-29T00:51:57;8.70;1.00
9410;DHT22;4744;52.576;13.568;2022-12-29T00:54:26;8.70;1.00
9410;DHT22;4744;52.576;13.568;2022-12-29T00:56:54;8.70;1.00
9410;DHT22;4744;52.576;13.568;2022-12-29T00:59:21;8.60;1.00
9410;DHT22;4744;52.576;13.568;2022-12-29T01:01:50;8.70;1.00
9410;DHT22;4744;52.576;13.568;2022-12-29T01:04:18;8.70;1.00
9410;DHT22;4744;52.576;13.568;2022-12-29T01:06:45;8.70;1.00
9410;DHT22;4744;52.576;13.568;2022-12-29T01:09:12;8.70;1.00
9410;DHT22;4744;52.576;13.568;2022-12-29T01:11:59;8.60;1.00
9410;DHT22;4744;52.576;13.568;2022-12-29T01:14:26;8.60;1.00
9410;DHT22;4744;52.576;13.568;2022-12-29T01:16:54;8.60;1.00
9410;DHT22;4744;52.576;13.568;2022-12-29T01:19:21;8.60;1.00
9410;DHT22;4744;52.576;13.568;2022-12-29T01:21:49;8.60;1.00
9410;DHT22;4744;52.576;13.568;2022-12-29T01:24:17;8.60;1.00
9410;DHT22;4744;52.576;13.568;2022-12-29T01:26:45;8.60;1.00
9410;DHT22;4744;52.576;13.568;2022-12-29T01:29:13;8.60;1.00
9410;DHT22;4744;52.576;13.568;2022-12-29T01:31:42;8.60;1.00
9410;DHT22;4744;52.576;13.568;2022-12-29T01:34:08;8.50;1.00
9410;DHT22;4744;52.576;13.568;2022-12-29T01:36:35;8.60;1.00
9410;DHT22;4744;52.576;13.568;2022-12-29T01:39:02;8.50;1.00
9410;DHT22;4744;52.576;13.568;2022-12-29T01:41:29;8.50;1.00
9410;DHT22;4744;52.576;13.568;2022-12-29T01:43:58;8.60;1.00
9410;DHT22;4744;52.576;13.568;2022-12-29T01:46:30;8.60;1.00
9410;DHT22;4744;52.576;13.568;2022-12-29T01:49:03;8.60;1.00
9410;DHT22;4744;52.576;13.568;2022-12-29T01:51:33;8.60;1.00
9410;DHT22;4744;52.576;13.568;2022-12-29T01:54:03;8.60;1.00
9410;DHT22;4744;52.576;13.568;2022-12-29T01:56:32;8.60;1.00
9410;DHT22;4744;52.576;13.568;2022-12-29T01:59:02;8.60;1.00
9410;DHT22;4744;52.576;13.568;2022-12-29T02:01:32;8.60;1.00
9410;DHT22;4744;52.576;13.568;2022-12-29T02:03:59;8.60;1.00
9410;DHT22;4744;52.576;13.568;2022-12-29T02:06:29;8.60;1.00
9410;DHT22;4744;52.576;13.568;2022-12-29T02:08:58;8.50;1.00
9410;DHT22;4744;52.576;13.568;2022-12-29T02:11:26;8.50;1.00
9410;DHT22;4744;52.576;13.568;2022-12-29T02:13:55;8.50;1.00
9410;DHT22;4744;52.576;13.568;2022-12-29T02:16:33;8.40;1.00
9410;DHT22;4744;52.576;13.568;2022-12-29T02:19:52;8.40;1.00
9410;DHT22;4744;52.576;13.568;2022-12-29T02:22:28;8.50;1.00
9410;DHT22;4744;52.576;13.568;2022-12-29T02:25:30;8.50;1.00
9410;DHT22;4744;52.576;13.568;2022-12-29T02:28:33;8.50;1.00
9410;DHT22;4744;52.576;13.568;2022-12-29T02:31:14;8.40;1.00
9410;DHT22;4744;52.576;13.568;2022-12-29T02:33:53;8.30;1.00
9410;DHT22;4744;52.576;13.568;2022-12-29T02:36:29;8.30;1.00
9410;DHT22;4744;52.576;13.568;2022-12-29T02:39:05;8.30;1.00
9410;DHT22;4744;52.576;13.568;2022-12-29T02:41:46;8.30;1.00
9410;DHT22;4744;52.576;13.568;2022-12-29T02:44:25;8.30;1.00
9410;DHT22;4744;52.576;13.568;2022-12-29T02:47:00;8.30;1.00
9410;DHT22;4744;52.576;13.568;2022-12-29T02:49:33;8.40;1.00
9410;DHT22;4744;52.576;13.568;2022-12-29T02:52:04;8.40;1.00
9410;DHT22;4744;52.576;13.568;2022-12-29T02:54:32;8.40;1.00
9410;DHT22;4744;52.576;13.568;2022-12-29T02:57:12;8.40;1.00
9410;DHT22;4744;52.576;13.568;2022-12-29T02:59:41;8.50;1.00
9410;DHT22;4744;52.576;13.568;2022-12-29T03:02:35;8.50;1.00
9410;DHT22;4744;52.576;13.568;2022-12-29T03:05:31;8.50;1.00
9410;DHT22;4744;52.576;13.568;2022-12-29T03:08:06;8.50;1.00
9410;DHT22;4744;52.576;13.568;2022-12-29T03:10:44;8.50;1.00
9410;DHT22;4744;52.576;13.568;2022-12-29T03:13:23;8.60;1.00
9410;DHT22;4744;52.576;13.568;2022-12-29T03:16:19;8.60;1.00
9410;DHT22;4744;52.576;13.568;2022-12-29T03:18:56;8.70;1.00
9410;DHT22;4744;52.576;13.568;2022-12-29T03:21:30;8.70;1.00
9410;DHT22;4744;52.576;13.568;2022-12-29T03:24:16;8.70;1.00
9410;DHT22;4744;52.576;13.568;2022-12-29T03:26:45;8.80;1.00
9410;DHT22;4744;52.576;13.568;2022-12-29T03:29:15;8.80;1.00
9410;DHT22;4744;52.576;13.568;2022-12-29T03:31:44;8.80;1.00
9410;DHT22;4744;52.576;13.568;2022-12-29T03:34:16;8.80;1.00
9410;DHT22;4744;52.576;13.568;2022-12-29T03:36:47;8.80;1.00
9410;DHT22;4744;52.576;13.568;2022-12-29T03:39:14;8.80;1.00
9410;DHT22;4744;52.576;13.568;2022-12-29T03:41:43;8.80;1.00
9410;DHT22;4744;52.576;13.568;2022-12-29T03:44:12;8.90;1.00
9410;DHT22;4744;52.576;13.568;2022-12-29T03:46:39;8.90;1.00
9410;DHT22;4744;52.576;13.568;2022-12-29T03:49:06;8.90;1.00
9410;DHT22;4744;52.576;13.568;2022-12-29T03:51:35;9.00;1.00
9410;DHT22;4744;52.576;13.568;2022-12-29T03:54:02;9.00;1.00
9410;DHT22;4744;52.576;13.568;2022-12-29T03:56:29;9.00;1.00
9410;DHT22;4744;52.576;13.568;2022-12-29T03:58:56;9.10;1.00
9410;DHT22;4744;52.576;13.568;2022-12-29T04:01:23;9.20;1.00
9410;DHT22;4744;52.576;13.568;2022-12-29T04:03:50;9.20;1.00
9410;DHT22;4744;52.576;13.568;2022-12-29T04:06:17;9.20;1.00
9410;DHT22;4744;52.576;13.568;2022-12-29T04:08:45;9.20;1.00
9410;DHT22;4744;52.576;13.568;2022-12-29T04:11:12;9.20;1.00
9410;DHT22;4744;52.576;13.568;2022-12-29T04:13:39;9.20;1.00
9410;DHT22;4744;52.576;13.568;2022-12-29T04:16:07;9.20;1.00
9410;DHT22;4744;52.576;13.568;2022-12-29T04:18:34;9.20;1.00
9410;DHT22;4744;52.576;13.568;2022-12-29T04:21:01;9.20;1.00
9410;DHT22;4744;52.576;13.568;2022-12-29T04:23:28;9.20;1.00
9410;DHT22;4744;52.576;13.568;2022-12-29T04:25:57;9.20;1.00
9410;DHT22;4744;52.576;13.568;2022-12-29T04:28:24;9.20;1.00
9410;DHT22;4744;52.576;13.568;2022-12-29T04:30:51;9.30;1.00
9410;DHT22;4744;52.576;13.568;2022-12-29T04:33:18;9.30;1.00
9410;DHT22;4744;52.576;13.568;2022-12-29T04:35:46;9.30;1.00
9410;DHT22;4744;52.576;13.568;2022-12-29T04:38:13;9.40;1.00
9410;DHT22;4744;52.576;13.568;2022-12-29T04:40:41;9.40;1.00
9410;DHT22;4744;52.576;13.568;2022-12-29T04:43:10;9.40;1.00
9410;DHT22;4744;52.576;13.568;2022-12-29T04:45:38;9.40;1.00
9410;DHT22;4744;52.576;13.568;2022-12-29T04:48:05;9.40;1.00
9410;DHT22;4744;52.576;13.568;2022-12-29T04:50:32;9.40;1.00
9410;DHT22;4744;52.576;13.568;2022-12-29T04:52:59;9.40;1.00
9410;DHT22;4744;52.576;13.568;2022-12-29T04:55:26;9.40;1.00
9410;DHT22;4744;52.576;13.568;2022-12-29T04:57:53;9.50;1.00
9410;DHT22;4744;52.576;13.568;2022-12-29T05:00:22;9.50;1.00
9410;DHT22;4744;52.576;13.568;2022-12-29T05:02:49;9.50;1.00
9410;DHT22;4744;52.576;13.568;2022-12-29T05:05:16;9.50;1.00
9410;DHT22;4744;52.576;13.568;2022-12-29T05:07:43;9.50;1.00
9410;DHT22;4744;52.576;13.568;2022-12-29T05:10:10;9.50;1.00
9410;DHT22;4744;52.576;13.568;2022-12-29T05:12:38;9.50;1.00
9410;DHT22;4744;52.576;13.568;2022-12-29T05:15:06;9.50;1.00
9410;DHT22;4744;52.576;13.568;2022-12-29T05:17:35;9.50;1.00
9410;DHT22;4744;52.576;13.568;2022-12-29T05:20:03;9.50;1.00
9410;DHT22;4744;52.576;13.568;2022-12-29T05:22:30;9.50;1.00
9410;DHT22;4744;52.576;13.568;2022-12-29T05:24:57;9.50;1.00
9410;DHT22;4744;52.576;13.568;2022-12-29T05:27:23;9.50;1.00
9410;DHT22;4744;52.576;13.568;2022-12-29T05:29:50;9.50;1.00
9410;DHT22;4744;52.576;13.568;2022-12-29T05:32:17;9.50;1.00
9410;DHT22;4744;52.576;13.568;2022-12-29T05:34:46;9.50;1.00
9410;DHT22;4744;52.576;13.568;2022-12-29T05:37:13;9.60;1.00
9410;DHT22;4744;52.576;13.568;2022-12-29T05:39:40;9.60;1.00
9410;DHT22;4744;52.576;13.568;2022-12-29T05:42:07;9.70;1.00
9410;DHT22;4744;52.576;13.568;2022-12-29T05:44:33;9.70;1.00
9410;DHT22;4744;52.576;13.568;2022-12-29T05:47:01;9.70;1.00
9410;DHT22;4744;52.576;13.568;2022-12-29T05:49:28;9.70;1.00
9410;DHT22;4744;52.576;13.568;2022-12-29T05:51:56;9.60;1.00
9410;DHT22;4744;52.576;13.568;2022-12-29T05:54:23;9.70;1.00
9410;DHT22;4744;52.576;13.568;2022-12-29T05:56:50;9.70;1.00
9410;DHT22;4744;52.576;13.568;2022-12-29T05:59:17;9.70;1.00
9410;DHT22;4744;52.576;13.568;2022-12-29T06:01:44;9.80;1.00
9410;DHT22;4744;52.576;13.568;2022-12-29T06:04:11;9.80;1.00
9410;DHT22;4744;52.576;13.568;2022-12-29T06:06:38;9.90;1.00
9410;DHT22;4744;52.576;13.568;2022-12-29T06:09:09;9.90;1.00
9410;DHT22;4744;52.576;13.568;2022-12-29T06:11:36;9.90;1.00
9410;DHT22;4744;52.576;13.568;2022-12-29T06:14:04;10.00;1.00
9410;DHT22;4744;52.576;13.568;2022-12-29T06:16:30;10.00;1.00
9410;DHT22;4744;52.576;13.568;2022-12-29T06:18:57;10.00;1.00
9410;DHT22;4744;52.576;13.568;2022-12-29T06:21:24;10.00;1.00
9410;DHT22;4744;52.576;13.568;2022-12-29T06:23:51;10.10;1.00
9410;DHT22;4744;52.576;13.568;2022-12-29T06:26:19;10.10;1.00
9410;DHT22;4744;52.576;13.568;2022-12-29T06:28:46;10.10;1.00
9410;DHT22;4744;52.576;13.568;2022-12-29T06:31:13;10.20;1.00
9410;DHT22;4744;52.576;13.568;2022-12-29T06:33:40;10.20;1.00
9410;DHT22;4744;52.576;13.568;2022-12-29T06:36:07;10.20;1.00
9410;DHT22;4744;52.576;13.568;2022-12-29T06:38:34;10.30;1.00
9410;DHT22;4744;52.576;13.568;2022-12-29T06:41:01;10.20;1.00
9410;DHT22;4744;52.576;13.568;2022-12-29T06:43:29;10.20;1.00
9410;DHT22;4744;52.576;13.568;2022-12-29T06:45:57;10.20;1.00
9410;DHT22;4744;52.576;13.568;2022-12-29T06:48:24;10.20;1.00
9410;DHT22;4744;52.576;13.568;2022-12-29T06:50:51;10.20;1.00
9410;DHT22;4744;52.576;13.568;2022-12-29T06:53:18;10.20;1.00
9410;DHT22;4744;52.576;13.568;2022-12-29T06:55:45;10.20;1.00
9410;DHT22;4744;52.576;13.568;2022-12-29T06:58:12;10.20;1.00
9410;DHT22;4744;52.576;13.568;2022-12-29T07:00:40;10.20;1.00
9410;DHT22;4744;52.576;13.568;2022-12-29T07:03:07;10.20;1.00
9410;DHT22;4744;52.576;13.568;2022-12-29T07:05:34;10.30;1.00
9410;DHT22;4744;52.576;13.568;2022-12-29T07:08:00;10.30;1.00
9410;DHT22;4744;52.576;13.568;2022-12-29T07:10:27;10.20;1.00
9410;DHT22;4744;52.576;13.568;2022-12-29T07:12:54;10.20;1.00
9410;DHT22;4744;52.576;13.568;2022-12-29T07:15:21;10.30;1.00
9410;DHT22;4744;52.576;13.568;2022-12-29T07:17:50;10.20;1.00
9410;DHT22;4744;52.576;13.568;2022-12-29T07:20:17;10.20;1.00
9410;DHT22;4744;52.576;13.568;2022-12-29T07:22:47;10.20;1.00
9410;DHT22;4744;52.576;13.568;2022-12-29T07:25:14;10.20;1.00
9410;DHT22;4744;52.576;13.568;2022-12-29T07:27:41;10.20;1.00
9410;DHT22;4744;52.576;13.568;2022-12-29T07:30:09;10.10;1.00
9410;DHT22;4744;52.576;13.568;2022-12-29T07:32:36;10.20;1.00
9410;DHT22;4744;52.576;13.568;2022-12-29T07:35:05;10.20;1.00
9410;DHT22;4744;52.576;13.568;2022-12-29T07:37:32;10.20;1.00
9410;DHT22;4744;52.576;13.568;2022-12-29T07:39:59;10.20;1.00
9410;DHT22;4744;52.576;13.568;2022-12-29T07:42:26;10.20;1.00
9410;DHT22;4744;52.576;13.568;2022-12-29T07:44:53;10.30;1.00
9410;DHT22;4744;52.576;13.568;2022-12-29T07:47:20;10.30;1.00
9410;DHT22;4744;52.576;13.568;2022-12-29T07:49:47;10.40;1.00
9410;DHT22;4744;52.576;13.568;2022-12-29T07:52:15;10.40;1.00
9410;DHT22;4744;52.576;13.568;2022-12-29T07:54:42;10.50;1.00
9410;DHT22;4744;52.576;13.568;2022-12-29T07:57:09;10.60;1.00
9410;DHT22;4744;52.576;13.568;2022-12-29T07:59:36;10.60;1.00
9410;DHT22;4744;52.576;13.568;2022-12-29T08:02:03;10.70;1.00
9410;DHT22;4744;52.576;13.568;2022-12-29T08:04:29;10.70;1.00
9410;DHT22;4744;52.576;13.568;2022-12-29T08:06:56;10.70;1.00
9410;DHT22;4744;52.576;13.568;2022-12-29T08:09:24;10.70;1.00
9410;DHT22;4744;52.576;13.568;2022-12-29T08:11:51;10.80;1.00
9410;DHT22;4744;52.576;13.568;2022-12-29T08:14:18;10.80;1.00
9410;DHT22;4744;52.576;13.568;2022-12-29T08:16:46;10.90;1.00
9410;DHT22;4744;52.576;13.568;2022-12-29T08:19:13;11.20;1.00
9410;DHT22;4744;52.576;13.568;2022-12-29T08:21:40;11.70;1.00
9410;DHT22;4744;52.576;13.568;2022-12-29T08:24:08;12.00;1.00
9410;DHT22;4744;52.576;13.568;2022-12-29T08:26:36;12.40;1.00
9410;DHT22;4744;52.576;13.568;2022-12-29T08:29:03;12.00;1.00
9410;DHT22;4744;52.576;13.568;2022-12-29T08:31:30;11.70;1.00
9410;DHT22;4744;52.576;13.568;2022-12-29T08:33:57;11.40;1.00
9410;DHT22;4744;52.576;13.568;2022-12-29T08:36:25;11.20;1.00
9410;DHT22;4744;52.576;13.568;2022-12-29T08:38:52;11.20;1.00
9410;DHT22;4744;52.576;13.568;2022-12-29T08:41:19;11.10;1.00
9410;DHT22;4744;52.576;13.568;2022-12-29T08:43:49;11.00;1.00
9410;DHT22;4744;52.576;13.568;2022-12-29T08:46:16;11.00;1.00
9410;DHT22;4744;52.576;13.568;2022-12-29T08:48:43;10.90;1.00
9410;DHT22;4744;52.576;13.568;2022-12-29T08:51:10;10.90;1.00
9410;DHT22;4744;52.576;13.568;2022-12-29T08:53:37;10.90;1.00
9410;DHT22;4744;52.576;13.568;2022-12-29T08:56:05;11.00;1.00
9410;DHT22;4744;52.576;13.568;2022-12-29T08:58:32;11.00;1.00
9410;DHT22;4744;52.576;13.568;2022-12-29T09:01:00;11.00;1.00
9410;DHT22;4744;52.576;13.568;2022-12-29T09:03:27;11.10;1.00
9410;DHT22;4744;52.576;13.568;2022-12-29T09:05:55;11.80;1.00
9410;DHT22;4744;52.576;13.568;2022-12-29T09:08:22;12.30;1.00
9410;DHT22;4744;52.576;13.568;2022-12-29T09:10:49;12.50;1.00
9410;DHT22;4744;52.576;13.568;2022-12-29T09:13:17;12.50;1.00
9410;DHT22;4744;52.576;13.568;2022-12-29T09:15:44;12.40;1.00
9410;DHT22;4744;52.576;13.568;2022-12-29T09:18:12;12.50;1.00
9410;DHT22;4744;52.576;13.568;2022-12-29T09:20:39;12.60;1.00
9410;DHT22;4744;52.576;13.568;2022-12-29T09:23:06;12.80;1.00
9410;DHT22;4744;52.576;13.568;2022-12-29T09:25:33;13.80;1.00
9410;DHT22;4744;52.576;13.568;2022-12-29T09:28:00;14.90;1.00
9410;DHT22;4744;52.576;13.568;2022-12-29T09:30:33;15.80;1.00
9410;DHT22;4744;52.576;13.568;2022-12-29T09:33:00;16.10;1.00
9410;DHT22;4744;52.576;13.568;2022-12-29T09:35:28;15.30;1.00
9410;DHT22;4744;52.576;13.568;2022-12-29T09:37:55;15.00;1.00
9410;DHT22;4744;52.576;13.568;2022-12-29T09:40:28;14.80;1.00
9410;DHT22;4744;52.576;13.568;2022-12-29T09:43:10;14.80;1.00
9410;DHT22;4744;52.576;13.568;2022-12-29T09:45:42;14.70;1.00
9410;DHT22;4744;52.576;13.568;2022-12-29T09:48:15;14.30;1.00
9410;DHT22;4744;52.576;13.568;2022-12-29T09:50:48;13.80;1.00
9410;DHT22;4744;52.576;13.568;2022-12-29T09:53:22;13.20;1.00
9410;DHT22;4744;52.576;13.568;2022-12-29T09:55:53;12.90;1.00
9410;DHT22;4744;52.576;13.568;2022-12-29T09:58:24;13.00;1.00
9410;DHT22;4744;52.576;13.568;2022-12-29T10:01:04;13.20;1.00
9410;DHT22;4744;52.576;13.568;2022-12-29T10:03:40;13.30;1.00
9410;DHT22;4744;52.576;13.568;2022-12-29T10:06:12;13.20;1.00
9410;DHT22;4744;52.576;13.568;2022-12-29T10:08:42;13.30;1.00
9410;DHT22;4744;52.576;13.568;2022-12-29T10:11:20;13.30;1.00
9410;DHT22;4744;52.576;13.568;2022-12-29T10:14:05;13.20;1.00
9410;DHT22;4744;52.576;13.568;2022-12-29T10:16:44;13.00;1.00
9410;DHT22;4744;52.576;13.568;2022-12-29T10:19:28;12.70;1.00
9410;DHT22;4744;52.576;13.568;2022-12-29T10:22:09;12.60;1.00
9410;DHT22;4744;52.576;13.568;2022-12-29T10:24:39;12.40;1.00
9410;DHT22;4744;52.576;13.568;2022-12-29T10:27:10;12.30;1.00
9410;DHT22;4744;52.576;13.568;2022-12-29T10:29:42;12.20;1.00
9410;DHT22;4744;52.576;13.568;2022-12-29T10:32:19;12.20;1.00
9410;DHT22;4744;52.576;13.568;2022-12-29T10:34:53;12.40;1.00
9410;DHT22;4744;52.576;13.568;2022-12-29T10:37:30;12.40;1.00
9410;DHT22;4744;52.576;13.568;2022-12-29T10:39:59;12.40;1.00
9410;DHT22;4744;52.576;13.568;2022-12-29T10:42:34;12.50;1.00
9410;DHT22;4744;52.576;13.568;2022-12-29T10:45:04;12.70;1.00
9410;DHT22;4744;52.576;13.568;2022-12-29T10:47:35;12.90;1.00
9410;DHT22;4744;52.576;13.568;2022-12-29T10:50:03;13.10;1.00
9410;DHT22;4744;52.576;13.568;2022-12-29T10:52:33;13.30;1.00
9410;DHT22;4744;52.576;13.568;2022-12-29T10:55:04;13.50;1.00
9410;DHT22;4744;52.576;13.568;2022-12-29T10:57:36;13.60;1.00
9410;DHT22;4744;52.576;13.568;2022-12-29T11:00:11;13.60;1.00
9410;DHT22;4744;52.576;13.568;2022-12-29T11:05:41;13.20;1.00
9410;DHT22;4744;52.576;13.568;2022-12-29T11:08:14;13.10;1.00
9410;DHT22;4744;52.576;13.568;2022-12-29T11:10:44;13.10;1.00
9410;DHT22;4744;52.576;13.568;2022-12-29T11:13:13;13.00;1.00
9410;DHT22;4744;52.576;13.568;2022-12-29T11:15:43;13.00;1.00
9410;DHT22;4744;52.576;13.568;2022-12-29T11:18:24;13.00;1.00
9410;DHT22;4744;52.576;13.568;2022-12-29T11:20:53;13.00;1.00
9410;DHT22;4744;52.576;13.568;2022-12-29T11:23:29;12.90;1.00
9410;DHT22;4744;52.576;13.568;2022-12-29T11:26:16;12.90;1.00
9410;DHT22;4744;52.576;13.568;2022-12-29T11:28:45;12.90;1.00
9410;DHT22;4744;52.576;13.568;2022-12-29T11:31:16;12.80;1.00
9410;DHT22;4744;52.576;13.568;2022-12-29T11:33:43;12.80;1.00
9410;DHT22;4744;52.576;13.568;2022-12-29T11:36:13;12.80;1.00
9410;DHT22;4744;52.576;13.568;2022-12-29T11:38:46;12.70;1.00
9410;DHT22;4744;52.576;13.568;2022-12-29T11:41:20;12.70;1.00
9410;DHT22;4744;52.576;13.568;2022-12-29T11:43:47;12.70;1.00
9410;DHT22;4744;52.576;13.568;2022-12-29T11:46:17;12.70;1.00
9410;DHT22;4744;52.576;13.568;2022-12-29T11:48:46;12.70;1.00
9410;DHT22;4744;52.576;13.568;2022-12-29T11:51:21;12.60;1.00
9410;DHT22;4744;52.576;13.568;2022-12-29T11:53:51;12.60;1.00
9410;DHT22;4744;52.576;13.568;2022-12-29T11:56:21;12.50;1.00
9410;DHT22;4744;52.576;13.568;2022-12-29T11:58:50;12.40;1.00
9410;DHT22;4744;52.576;13.568;2022-12-29T12:01:21;12.40;1.00
9410;DHT22;4744;52.576;13.568;2022-12-29T12:03:58;12.40;1.00
9410;DHT22;4744;52.576;13.568;2022-12-29T12:06:27;12.40;1.00
9410;DHT22;4744;52.576;13.568;2022-12-29T12:09:02;12.30;1.00
9410;DHT22;4744;52.576;13.568;2022-12-29T12:11:34;12.20;1.00
9410;DHT22;4744;52.576;13.568;2022-12-29T12:14:11;12.20;1.00
9410;DHT22;4744;52.576;13.568;2022-12-29T12:16:43;12.10;1.00
9410;DHT22;4744;52.576;13.568;2022-12-29T12:19:20;12.00;1.00
9410;DHT22;4744;52.576;13.568;2022-12-29T12:21:55;11.90;1.00
9410;DHT22;4744;52.576;13.568;2022-12-29T12:24:37;11.80;1.00
9410;DHT22;4744;52.576;13.568;2022-12-29T12:27:12;11.70;1.00
9410;DHT22;4744;52.576;13.568;2022-12-29T12:29:45;11.60;1.00
9410;DHT22;4744;52.576;13.568;2022-12-29T12:32:19;11.50;1.00
9410;DHT22;4744;52.576;13.568;2022-12-29T12:34:47;11.40;1.00
9410;DHT22;4744;52.576;13.568;2022-12-29T12:37:48;11.30;1.00
9410;DHT22;4744;52.576;13.568;2022-12-29T12:40:50;11.20;1.00
9410;DHT22;4744;52.576;13.568;2022-12-29T12:52:02;11.00;1.00
9410;DHT22;4744;52.576;13.568;2022-12-29T12:54:45;11.00;1.00
9410;DHT22;4744;52.576;13.568;2022-12-29T12:57:19;11.10;1.00
9410;DHT22;4744;52.576;13.568;2022-12-29T12:59:56;11.10;1.00
9410;DHT22;4744;52.576;13.568;2022-12-29T13:02:34;11.10;1.00
9410;DHT22;4744;52.576;13.568;2022-12-29T13:05:17;11.10;1.00
9410;DHT22;4744;52.576;13.568;2022-12-29T13:07:51;11.00;1.00
9410;DHT22;4744;52.576;13.568;2022-12-29T13:10:31;11.00;1.00
9410;DHT22;4744;52.576;13.568;2022-12-29T13:13:15;11.10;1.00
9410;DHT22;4744;52.576;13.568;2022-12-29T13:15:46;11.20;1.00
9410;DHT22;4744;52.576;13.568;2022-12-29T13:18:22;11.30;1.00
9410;DHT22;4744;52.576;13.568;2022-12-29T13:20:55;11.30;1.00
9410;DHT22;4744;52.576;13.568;2022-12-29T13:23:34;11.40;1.00
9410;DHT22;4744;52.576;13.568;2022-12-29T13:26:08;11.40;1.00
9410;DHT22;4744;52.576;13.568;2022-12-29T13:28:49;11.40;1.00
9410;DHT22;4744;52.576;13.568;2022-12-29T13:31:27;11.40;1.00
9410;DHT22;4744;52.576;13.568;2022-12-29T13:34:03;11.40;1.00
9410;DHT22;4744;52.576;13.568;2022-12-29T13:36:37;11.40;1.00
9410;DHT22;4744;52.576;13.568;2022-12-29T13:39:10;11.40;1.00
9410;DHT22;4744;52.576;13.568;2022-12-29T13:41:42;11.40;1.00
9410;DHT22;4744;52.576;13.568;2022-12-29T13:44:16;11.30;1.00
9410;DHT22;4744;52.576;13.568;2022-12-29T13:46:45;11.30;1.00
9410;DHT22;4744;52.576;13.568;2022-12-29T13:49:16;11.30;1.00
9410;DHT22;4744;52.576;13.568;2022-12-29T13:51:48;11.20;1.00
9410;DHT22;4744;52.576;13.568;2022-12-29T13:54:28;11.10;1.00
9410;DHT22;4744;52.576;13.568;2022-12-29T13:57:05;11.10;1.00
9410;DHT22;4744;52.576;13.568;2022-12-29T13:59:41;11.20;1.00
9410;DHT22;4744;52.576;13.568;2022-12-29T14:02:18;11.10;1.00
9410;DHT22;4744;52.576;13.568;2022-12-29T14:04:57;11.10;1.00
9410;DHT22;4744;52.576;13.568;2022-12-29T14:07:24;11.10;1.00
9410;DHT22;4744;52.576;13.568;2022-12-29T14:09:53;11.10;1.00
9410;DHT22;4744;52.576;13.568;2022-12-29T14:12:30;11.00;1.00
9410;DHT22;4744;52.576;13.568;2022-12-29T14:15:21;11.00;1.00
9410;DHT22;4744;52.576;13.568;2022-12-29T14:18:14;11.00;1.00
9410;DHT22;4744;52.576;13.568;2022-12-29T14:20:50;10.90;1.00
9410;DHT22;4744;52.576;13.568;2022-12-29T14:23:27;10.90;1.00
9410;DHT22;4744;52.576;13.568;2022-12-29T14:25:58;10.90;1.00
9410;DHT22;4744;52.576;13.568;2022-12-29T14:28:27;10.90;1.00
9410;DHT22;4744;52.576;13.568;2022-12-29T14:30:56;10.90;1.00
9410;DHT22;4744;52.576;13.568;2022-12-29T14:33:26;10.80;1.00
9410;DHT22;4744;52.576;13.568;2022-12-29T14:35:54;10.80;1.00
9410;DHT22;4744;52.576;13.568;2022-12-29T14:38:29;10.80;1.00
9410;DHT22;4744;52.576;13.568;2022-12-29T14:41:17;10.80;1.00
9410;DHT22;4744;52.576;13.568;2022-12-29T14:44:00;10.70;1.00
9410;DHT22;4744;52.576;13.568;2022-12-29T14:49:23;10.70;1.00
9410;DHT22;4744;52.576;13.568;2022-12-29T14:51:52;10.60;1.00
9410;DHT22;4744;52.576;13.568;2022-12-29T14:54:51;10.60;1.00
9410;DHT22;4744;52.576;13.568;2022-12-29T14:57:26;10.60;1.00
9410;DHT22;4744;52.576;13.568;2022-12-29T14:59:57;10.60;1.00
9410;DHT22;4744;52.576;13.568;2022-12-29T15:02:27;10.50;1.00
9410;DHT22;4744;52.576;13.568;2022-12-29T15:05:00;10.50;1.00
9410;DHT22;4744;52.576;13.568;2022-12-29T15:07:29;10.60;1.00
9410;DHT22;4744;52.576;13.568;2022-12-29T15:10:00;10.60;1.00
9410;DHT22;4744;52.576;13.568;2022-12-29T15:12:35;10.60;1.00
9410;DHT22;4744;52.576;13.568;2022-12-29T15:15:17;10.50;1.00
9410;DHT22;4744;52.576;13.568;2022-12-29T15:17:45;10.50;1.00
9410;DHT22;4744;52.576;13.568;2022-12-29T15:20:21;10.50;1.00
9410;DHT22;4744;52.576;13.568;2022-12-29T15:22:52;10.40;1.00
9410;DHT22;4744;52.576;13.568;2022-12-29T15:25:19;10.40;1.00
9410;DHT22;4744;52.576;13.568;2022-12-29T15:27:49;10.40;1.00
9410;DHT22;4744;52.576;13.568;2022-12-29T15:30:17;10.40;1.00
9410;DHT22;4744;52.576;13.568;2022-12-29T15:32:44;10.40;1.00
9410;DHT22;4744;52.576;13.568;2022-12-29T15:35:30;10.50;1.00
9410;DHT22;4744;52.576;13.568;2022-12-29T15:37:58;10.50;1.00
9410;DHT22;4744;52.576;13.568;2022-12-29T15:40:28;10.50;1.00
9410;DHT22;4744;52.576;13.568;2022-12-29T15:43:13;10.50;1.00
9410;DHT22;4744;52.576;13.568;2022-12-29T15:45:44;10.50;1.00
9410;DHT22;4744;52.576;13.568;2022-12-29T15:48:18;10.40;1.00
9410;DHT22;4744;52.576;13.568;2022-12-29T15:50:48;10.40;1.00
9410;DHT22;4744;52.576;13.568;2022-12-29T15:53:20;10.30;1.00
9410;DHT22;4744;52.576;13.568;2022-12-29T15:55:54;10.20;1.00
9410;DHT22;4744;52.576;13.568;2022-12-29T15:58:23;10.20;1.00
9410;DHT22;4744;52.576;13.568;2022-12-29T16:00:52;10.10;1.00
9410;DHT22;4744;52.576;13.568;2022-12-29T16:03:20;10.00;1.00
9410;DHT22;4744;52.576;13.568;2022-12-29T16:05:54;10.00;1.00
9410;DHT22;4744;52.576;13.568;2022-12-29T16:08:27;9.90;1.00
9410;DHT22;4744;52.576;13.568;2022-12-29T16:10:58;9.80;1.00
9410;DHT22;4744;52.576;13.568;2022-12-29T16:13:30;9.80;1.00
9410;DHT22;4744;52.576;13.568;2022-12-29T16:16:01;9.80;1.00
9410;DHT22;4744;52.576;13.568;2022-12-29T16:18:30;9.70;1.00
9410;DHT22;4744;52.576;13.568;2022-12-29T16:21:02;9.70;1.00
9410;DHT22;4744;52.576;13.568;2022-12-29T16:23:30;9.70;1.00
9410;DHT22;4744;52.576;13.568;2022-12-29T16:25:58;9.80;1.00
9410;DHT22;4744;52.576;13.568;2022-12-29T16:28:29;9.80;1.00
9410;DHT22;4744;52.576;13.568;2022-12-29T16:31:03;9.80;1.00
9410;DHT22;4744;52.576;13.568;2022-12-29T16:33:39;9.70;1.00
9410;DHT22;4744;52.576;13.568;2022-12-29T16:36:51;9.80;1.00
9410;DHT22;4744;52.576;13.568;2022-12-29T16:39:24;9.70;1.00
9410;DHT22;4744;52.576;13.568;2022-12-29T16:41:52;9.70;1.00
9410;DHT22;4744;52.576;13.568;2022-12-29T16:44:21;9.70;1.00
9410;DHT22;4744;52.576;13.568;2022-12-29T16:47:19;9.60;1.00
9410;DHT22;4744;52.576;13.568;2022-12-29T16:49:51;9.60;1.00
9410;DHT22;4744;52.576;13.568;2022-12-29T16:52:23;9.60;1.00